高雄國際航空站 - ATIS

METAR RCKH 120400Z 26007KT 220V300 9999 FEW016 SCT030 28/15 Q1016 NOSIG RMK A3001(P)=

站台狀態:Offline
最後更新:2019-11-12 12:00:02